Time;durP1;ratioP1;P1;durP2;ratioP2;P2;SDS_P1;SDS_P2;PMS_P1;PMS_P2;Temp;Humidity;BMP_temperature;BMP_pressure;BME280_temperature;BME280_humidity;BME280_pressure;Samples;Min_cycle;Max_cycle;Signal;HPM_P1;HPM_P2
2021/04/09 00:00:51;;;;;;;16.67;15.07;;;2.60;99.90;;;;;;5132813;27;21017;-66
2021/04/09 00:03:18;;;;;;;16.00;14.60;;;2.60;99.90;;;;;;5132652;27;20438;-68
2021/04/09 00:05:44;;;;;;;16.90;15.20;;;2.60;99.90;;;;;;5132473;27;20449;-67
2021/04/09 00:08:11;;;;;;;16.73;15.13;;;2.60;99.90;;;;;;5132727;27;20454;-67
2021/04/09 00:10:37;;;;;;;17.23;15.83;;;2.60;99.90;;;;;;5132795;27;20453;-67
2021/04/09 00:13:04;;;;;;;19.77;17.87;;;2.60;99.90;;;;;;5132378;27;20450;-67
2021/04/09 00:15:31;;;;;;;15.33;13.73;;;2.60;99.90;;;;;;5132178;27;20573;-67
2021/04/09 00:17:57;;;;;;;16.60;15.20;;;2.50;99.90;;;;;;5132739;27;20478;-68
2021/04/09 00:20:26;;;;;;;16.67;14.90;;;2.50;99.90;;;;;;5132522;27;20468;-67
2021/04/09 00:22:53;;;;;;;19.23;15.70;;;2.50;99.90;;;;;;5132562;27;20447;-67
2021/04/09 00:25:20;;;;;;;16.70;15.30;;;2.50;99.90;;;;;;5131416;27;20808;-67
2021/04/09 00:27:46;;;;;;;18.10;16.37;;;2.40;99.90;;;;;;5132569;27;20451;-67
2021/04/09 00:30:18;;;;;;;14.90;13.70;;;2.30;99.90;;;;;;5132142;27;20456;-68
2021/04/09 00:32:44;;;;;;;17.40;15.70;;;2.30;99.90;;;;;;5132689;27;20444;-67
2021/04/09 00:35:12;;;;;;;15.43;14.10;;;2.30;99.90;;;;;;5132343;27;20449;-67
2021/04/09 00:37:39;;;;;;;16.50;15.17;;;2.20;99.90;;;;;;5132002;27;20489;-67
2021/04/09 00:40:07;;;;;;;16.80;15.30;;;2.20;99.90;;;;;;5132457;27;20819;-68
2021/04/09 00:42:33;;;;;;;17.40;15.70;;;2.10;99.90;;;;;;5132260;27;20456;-67
2021/04/09 00:44:59;;;;;;;18.27;16.63;;;2.10;99.90;;;;;;5132280;27;20473;-67
2021/04/09 00:47:26;;;;;;;17.60;15.93;;;2.10;99.90;;;;;;5132271;27;20571;-67
2021/04/09 00:49:52;;;;;;;17.63;15.97;;;2.20;99.90;;;;;;5132069;27;20735;-67
2021/04/09 00:52:19;;;;;;;16.30;14.90;;;2.10;99.90;;;;;;5131819;27;20454;-66
2021/04/09 00:54:46;;;;;;;17.10;15.60;;;2.10;99.90;;;;;;5132014;28;20452;-64
2021/04/09 00:57:12;;;;;;;18.30;16.63;;;2.20;99.90;;;;;;5132003;27;20491;-65
2021/04/09 00:59:39;;;;;;;18.30;16.50;;;2.10;99.90;;;;;;5131957;27;20454;-64
2021/04/09 01:02:05;;;;;;;18.60;16.70;;;2.20;99.90;;;;;;5131909;27;20456;-65
2021/04/09 01:04:32;;;;;;;21.10;16.63;;;2.10;99.90;;;;;;5131808;27;20441;-65
2021/04/09 01:06:58;;;;;;;18.90;17.20;;;2.10;99.90;;;;;;5131972;27;20864;-65
2021/04/09 01:09:24;;;;;;;19.47;17.23;;;2.10;99.90;;;;;;5131908;27;20500;-65
2021/04/09 01:11:51;;;;;;;18.57;16.73;;;2.10;99.90;;;;;;5131827;27;20815;-65
2021/04/09 01:14:17;;;;;;;18.20;16.40;;;2.10;99.90;;;;;;5131590;27;20449;-65
2021/04/09 01:16:48;;;;;;;17.90;16.20;;;2.00;99.90;;;;;;5131737;27;20485;-65
2021/04/09 01:19:31;;;;;;;17.37;15.73;;;2.10;99.90;;;;;;5131624;27;20477;-65
2021/04/09 01:22:03;;;;;;;19.30;17.43;;;2.10;99.90;;;;;;5131753;27;20932;-65
2021/04/09 01:24:54;;;;;;;19.80;18.30;;;2.10;99.90;;;;;;5131916;28;20460;-65
2021/04/09 01:27:54;;;;;;;18.57;17.07;;;2.10;99.90;;;;;;5131494;27;20446;-65
2021/04/09 01:30:42;;;;;;;18.27;16.20;;;2.00;99.90;;;;;;5131714;27;20456;-65
2021/04/09 01:33:10;;;;;;;18.30;15.63;;;2.00;99.90;;;;;;5131916;27;20454;-65
2021/04/09 01:35:42;;;;;;;19.93;18.00;;;1.90;99.90;;;;;;5131549;27;20457;-64
2021/04/09 01:38:09;;;;;;;16.33;14.80;;;1.90;99.90;;;;;;5134539;27;20472;-65
2021/04/09 01:40:39;;;;;;;19.00;17.30;;;1.90;99.90;;;;;;5135521;27;20451;-65
2021/04/09 01:43:09;;;;;;;18.93;17.20;;;1.90;99.90;;;;;;5135400;27;20456;-65
2021/04/09 01:45:36;;;;;;;18.30;16.60;;;1.90;99.90;;;;;;5135677;27;20842;-65
2021/04/09 01:48:05;;;;;;;18.63;17.13;;;1.90;99.90;;;;;;5135252;27;20447;-65
2021/04/09 01:50:32;;;;;;;19.40;17.50;;;1.80;99.90;;;;;;5135121;27;20449;-65
2021/04/09 01:53:01;;;;;;;17.97;16.13;;;1.80;99.90;;;;;;5135354;27;20496;-65
2021/04/09 01:55:29;;;;;;;18.63;16.70;;;1.80;99.90;;;;;;5135270;27;20452;-65
2021/04/09 01:57:57;;;;;;;18.20;16.50;;;1.80;99.90;;;;;;5135076;27;20842;-65
2021/04/09 02:00:25;;;;;;;19.47;17.53;;;1.70;99.90;;;;;;5134898;27;20456;-65
2021/04/09 02:02:53;;;;;;;20.90;18.80;;;1.70;99.90;;;;;;5135166;27;20451;-65
2021/04/09 02:05:22;;;;;;;20.27;18.37;;;1.70;99.90;;;;;;5134873;27;20445;-64
2021/04/09 02:07:52;;;;;;;17.90;16.20;;;1.70;99.90;;;;;;5135089;27;20471;-65
2021/04/09 02:10:20;;;;;;;18.93;17.03;;;1.70;99.90;;;;;;5134792;27;20448;-64
2021/04/09 02:12:47;;;;;;;19.03;17.13;;;1.70;99.90;;;;;;5134874;27;20453;-64
2021/04/09 02:15:17;;;;;;;22.70;20.67;;;1.70;99.90;;;;;;5134968;27;20445;-64
2021/04/09 02:17:43;;;;;;;19.23;17.50;;;1.70;99.90;;;;;;5134756;27;20494;-64
2021/04/09 02:20:14;;;;;;;18.77;16.97;;;1.60;99.90;;;;;;5134628;27;20472;-64
2021/04/09 02:22:41;;;;;;;20.57;18.57;;;1.60;99.90;;;;;;5134683;27;20456;-65
2021/04/09 02:25:10;;;;;;;18.60;16.70;;;1.60;99.90;;;;;;5134564;27;20448;-64
2021/04/09 02:27:37;;;;;;;20.33;18.40;;;1.60;99.90;;;;;;5134915;27;20452;-64
2021/04/09 02:30:05;;;;;;;19.63;17.83;;;1.60;99.90;;;;;;5134681;27;20445;-65
2021/04/09 02:32:32;;;;;;;19.57;17.90;;;1.70;99.90;;;;;;5134388;27;20442;-65
2021/04/09 02:34:58;;;;;;;21.77;19.67;;;1.70;99.90;;;;;;5134452;27;20816;-65
2021/04/09 02:37:24;;;;;;;21.33;19.00;;;1.70;99.90;;;;;;5134458;27;20486;-64
2021/04/09 02:39:53;;;;;;;20.60;18.53;;;1.70;99.90;;;;;;5134133;27;20445;-65
2021/04/09 02:42:20;;;;;;;20.33;17.50;;;1.70;99.90;;;;;;5134361;27;20449;-65
2021/04/09 02:44:47;;;;;;;18.90;17.30;;;1.70;99.90;;;;;;5134095;27;20445;-65
2021/04/09 02:47:20;;;;;;;21.70;19.40;;;1.70;99.90;;;;;;5134400;27;20445;-65
2021/04/09 02:49:49;;;;;;;22.40;19.97;;;1.70;99.90;;;;;;5133245;27;20460;-65
2021/04/09 02:52:22;;;;;;;25.43;19.70;;;1.70;99.90;;;;;;5134038;27;20450;-65
2021/04/09 02:54:50;;;;;;;22.13;17.70;;;1.80;99.90;;;;;;5134439;27;20460;-65
2021/04/09 02:57:19;;;;;;;21.37;19.20;;;1.70;99.90;;;;;;5134143;27;20485;-65
2021/04/09 02:59:48;;;;;;;20.17;18.43;;;1.70;99.90;;;;;;5134016;27;20445;-65
2021/04/09 03:02:14;;;;;;;19.20;17.20;;;1.70;99.90;;;;;;5134114;27;20449;-65
2021/04/09 03:04:41;;;;;;;21.83;19.63;;;1.70;99.90;;;;;;5133704;27;20447;-64
2021/04/09 03:07:08;;;;;;;21.57;19.33;;;1.70;99.90;;;;;;5133971;27;20823;-65
2021/04/09 03:09:36;;;;;;;23.13;20.73;;;1.70;99.90;;;;;;5133972;27;20510;-65
2021/04/09 03:12:11;;;;;;;24.57;20.27;;;1.70;99.90;;;;;;5133773;27;20446;-66
2021/04/09 03:14:39;;;;;;;21.23;19.13;;;1.70;99.90;;;;;;5133439;27;20437;-66
2021/04/09 03:17:09;;;;;;;23.87;19.83;;;1.60;99.90;;;;;;5133554;27;20991;-66
2021/04/09 03:19:35;;;;;;;18.93;17.23;;;1.60;99.90;;;;;;5133442;27;20479;-65
2021/04/09 03:22:07;;;;;;;19.77;18.00;;;1.60;99.90;;;;;;5133730;27;20436;-65
2021/04/09 03:24:34;;;;;;;23.47;21.17;;;1.60;99.90;;;;;;5133465;27;20869;-65
2021/04/09 03:27:00;;;;;;;22.83;20.90;;;1.60;99.90;;;;;;5133552;27;20444;-64
2021/04/09 03:29:26;;;;;;;19.60;17.80;;;1.50;99.90;;;;;;5133851;27;20449;-65
2021/04/09 03:31:53;;;;;;;20.97;19.07;;;1.50;99.90;;;;;;5133331;27;20446;-65
2021/04/09 03:34:20;;;;;;;19.80;18.00;;;1.50;99.90;;;;;;5132899;27;20956;-65
2021/04/09 03:36:46;;;;;;;19.80;17.93;;;1.60;99.90;;;;;;5133228;27;20449;-65
2021/04/09 03:39:12;;;;;;;23.13;20.83;;;1.50;99.90;;;;;;5133374;27;20453;-65
2021/04/09 03:41:38;;;;;;;21.13;19.43;;;1.50;99.90;;;;;;5133050;27;20454;-65
2021/04/09 03:44:05;;;;;;;25.87;19.30;;;1.50;99.90;;;;;;5132903;27;20448;-65
2021/04/09 03:46:31;;;;;;;19.83;18.03;;;1.50;99.90;;;;;;5133062;27;20455;-65
2021/04/09 03:48:57;;;;;;;19.97;17.97;;;1.40;99.90;;;;;;5133329;27;20812;-65
2021/04/09 03:51:25;;;;;;;18.63;17.23;;;1.40;99.90;;;;;;5133124;27;20452;-65
2021/04/09 03:53:51;;;;;;;22.17;19.90;;;1.40;99.90;;;;;;5132899;27;20472;-65
2021/04/09 03:56:17;;;;;;;19.47;17.57;;;1.40;99.90;;;;;;5132788;27;20456;-65
2021/04/09 03:58:43;;;;;;;19.20;17.60;;;1.40;99.90;;;;;;5132907;27;20488;-65
2021/04/09 04:01:09;;;;;;;20.53;18.33;;;1.40;99.90;;;;;;5132442;27;20459;-65
2021/04/09 04:03:35;;;;;;;19.53;17.80;;;1.40;99.90;;;;;;5132254;27;20444;-64
2021/04/09 04:06:02;;;;;;;27.30;17.90;;;1.40;99.90;;;;;;5132509;27;20448;-65
2021/04/09 04:08:29;;;;;;;18.40;16.50;;;1.40;99.90;;;;;;5133023;27;20448;-65
2021/04/09 04:10:55;;;;;;;17.93;16.30;;;1.40;99.90;;;;;;5132944;27;20491;-65
2021/04/09 04:13:22;;;;;;;18.13;16.67;;;1.40;99.90;;;;;;5132595;27;20441;-65
2021/04/09 04:15:49;;;;;;;18.47;16.70;;;1.40;99.90;;;;;;5132798;27;20963;-65
2021/04/09 04:18:15;;;;;;;18.63;17.20;;;1.40;99.90;;;;;;5132001;27;20494;-65
2021/04/09 04:20:41;;;;;;;17.37;15.80;;;1.40;99.90;;;;;;5132621;27;20446;-65
2021/04/09 04:23:08;;;;;;;18.77;16.13;;;1.40;99.90;;;;;;5132684;27;20543;-65
2021/04/09 04:25:35;;;;;;;19.40;17.60;;;1.40;99.90;;;;;;5132325;27;20725;-66
2021/04/09 04:28:01;;;;;;;18.47;16.50;;;1.40;99.90;;;;;;5132274;27;20444;-65
2021/04/09 04:30:27;;;;;;;18.17;16.43;;;1.40;99.90;;;;;;5132297;27;20820;-65
2021/04/09 04:32:53;;;;;;;18.97;16.93;;;1.40;99.90;;;;;;5132279;27;20459;-66
2021/04/09 04:35:20;;;;;;;20.73;18.57;;;1.40;99.90;;;;;;5132317;27;20448;-65
2021/04/09 04:37:46;;;;;;;19.80;18.10;;;1.30;99.90;;;;;;5132110;27;20493;-65
2021/04/09 04:40:13;;;;;;;18.40;16.80;;;1.30;99.90;;;;;;5132290;27;20452;-65
2021/04/09 04:42:40;;;;;;;17.80;16.10;;;1.40;99.90;;;;;;5131959;27;20450;-65
2021/04/09 04:45:07;;;;;;;19.73;17.37;;;1.30;99.90;;;;;;5132382;27;20445;-66
2021/04/09 04:47:34;;;;;;;18.87;16.97;;;1.30;99.90;;;;;;5132489;27;20451;-65
2021/04/09 04:50:00;;;;;;;24.27;18.87;;;1.30;99.90;;;;;;5131882;27;20949;-64
2021/04/09 04:52:26;;;;;;;16.67;15.13;;;1.30;99.90;;;;;;5132155;27;20465;-64
2021/04/09 04:54:52;;;;;;;19.17;17.43;;;1.30;99.90;;;;;;5131931;27;20455;-65
2021/04/09 04:57:18;;;;;;;17.50;16.13;;;1.30;99.90;;;;;;5131870;27;20488;-64
2021/04/09 04:59:45;;;;;;;21.90;19.20;;;1.30;99.90;;;;;;5131967;27;20450;-65
2021/04/09 05:02:11;;;;;;;18.60;16.67;;;1.40;99.90;;;;;;5132236;27;20451;-65
2021/04/09 05:04:38;;;;;;;18.50;16.70;;;1.40;99.90;;;;;;5131789;28;20448;-65
2021/04/09 05:07:04;;;;;;;19.80;17.97;;;1.50;99.90;;;;;;5131985;27;20446;-65
2021/04/09 05:09:30;;;;;;;20.53;17.93;;;1.50;99.90;;;;;;5131833;28;21015;-65
2021/04/09 05:11:56;;;;;;;20.03;18.07;;;1.60;99.90;;;;;;5133276;27;20451;-65
2021/04/09 05:14:23;;;;;;;18.63;16.90;;;1.60;99.90;;;;;;5136112;27;20436;-65
2021/04/09 05:16:50;;;;;;;25.30;18.60;;;1.60;99.90;;;;;;5135604;27;20498;-65
2021/04/09 05:19:16;;;;;;;18.33;16.83;;;1.70;99.90;;;;;;5135808;27;20483;-65
2021/04/09 05:21:42;;;;;;;21.67;19.40;;;1.80;99.90;;;;;;5136057;27;20444;-65
2021/04/09 05:24:09;;;;;;;17.63;15.97;;;1.80;99.90;;;;;;5136083;27;20512;-65
2021/04/09 05:26:35;;;;;;;18.53;16.33;;;1.90;99.90;;;;;;5136069;27;20446;-64
2021/04/09 05:29:01;;;;;;;17.07;15.43;;;1.90;99.90;;;;;;5135632;27;20489;-65
2021/04/09 05:31:28;;;;;;;18.10;16.40;;;2.00;99.90;;;;;;5135660;27;20949;-65
2021/04/09 05:33:55;;;;;;;16.23;14.67;;;2.00;99.90;;;;;;5135606;27;20497;-65
2021/04/09 05:36:21;;;;;;;18.30;16.60;;;2.10;99.90;;;;;;5135452;27;20459;-65
2021/04/09 05:38:47;;;;;;;20.03;14.70;;;2.10;99.90;;;;;;5135480;27;20472;-65
2021/04/09 05:41:13;;;;;;;19.30;15.77;;;2.10;99.90;;;;;;5135415;27;20444;-65
2021/04/09 05:43:39;;;;;;;16.63;14.67;;;2.20;99.90;;;;;;5135346;27;20453;-66
2021/04/09 05:46:06;;;;;;;19.83;15.40;;;2.30;99.90;;;;;;5135523;27;20810;-65
2021/04/09 05:48:32;;;;;;;16.70;15.20;;;2.40;99.90;;;;;;5135225;27;20448;-64
2021/04/09 05:50:59;;;;;;;20.07;17.60;;;2.50;99.90;;;;;;5135192;27;20460;-65
2021/04/09 05:53:25;;;;;;;19.23;17.33;;;2.70;99.90;;;;;;5135401;27;20441;-65
2021/04/09 05:55:52;;;;;;;19.73;17.73;;;2.70;99.90;;;;;;5135504;27;20466;-66
2021/04/09 05:58:18;;;;;;;19.83;17.77;;;2.90;99.90;;;;;;5135238;27;20627;-66
2021/04/09 06:00:44;;;;;;;19.43;15.73;;;3.20;99.90;;;;;;5135441;27;20456;-66
2021/04/09 06:03:11;;;;;;;18.73;16.93;;;3.40;99.90;;;;;;5134960;27;20453;-66
2021/04/09 06:05:37;;;;;;;18.00;16.13;;;3.60;99.90;;;;;;5134758;27;20807;-66
2021/04/09 06:08:06;;;;;;;17.90;16.33;;;3.80;99.90;;;;;;5135035;27;20443;-66
2021/04/09 06:10:33;;;;;;;16.10;14.90;;;3.90;99.90;;;;;;5134980;27;20538;-66
2021/04/09 06:12:59;;;;;;;14.80;13.50;;;4.20;99.90;;;;;;5134845;27;20456;-67
2021/04/09 06:15:26;;;;;;;16.47;15.00;;;4.40;99.90;;;;;;5134621;27;20457;-66
2021/04/09 06:17:52;;;;;;;16.63;15.27;;;4.60;99.90;;;;;;5134338;27;21078;-67
2021/04/09 06:20:18;;;;;;;16.63;14.90;;;4.70;99.90;;;;;;5134789;27;20443;-67
2021/04/09 06:22:46;;;;;;;16.03;14.00;;;4.70;99.90;;;;;;5134139;27;20457;-67
2021/04/09 06:25:15;;;;;;;15.50;14.10;;;4.70;99.90;;;;;;5133887;27;20825;-66
2021/04/09 06:27:41;;;;;;;15.50;14.10;;;4.70;99.90;;;;;;5134851;27;20792;-67
2021/04/09 06:30:09;;;;;;;14.97;13.77;;;5.00;99.90;;;;;;5134600;27;20453;-66
2021/04/09 06:32:35;;;;;;;15.93;14.20;;;5.30;99.90;;;;;;5134386;27;20439;-66
2021/04/09 06:35:02;;;;;;;15.30;14.10;;;5.70;99.90;;;;;;5134316;27;20467;-67
2021/04/09 06:37:28;;;;;;;16.27;14.80;;;5.80;99.90;;;;;;5134378;27;20486;-67
2021/04/09 06:39:54;;;;;;;16.80;15.20;;;5.90;99.70;;;;;;5134240;27;20445;-67
2021/04/09 06:42:21;;;;;;;17.20;15.57;;;6.00;99.50;;;;;;5134324;27;20454;-69
2021/04/09 06:44:48;;;;;;;14.33;13.13;;;6.20;99.30;;;;;;5134158;27;20455;-68
2021/04/09 06:47:16;;;;;;;16.10;14.77;;;6.10;99.00;;;;;;5134504;27;20450;-67
2021/04/09 06:49:43;;;;;;;16.63;15.13;;;6.10;99.00;;;;;;5134205;27;20513;-67
2021/04/09 06:52:11;;;;;;;14.30;13.20;;;6.00;98.80;;;;;;5133966;27;20443;-68
2021/04/09 06:54:37;;;;;;;16.23;14.47;;;6.00;98.60;;;;;;5134433;27;20811;-68
2021/04/09 06:57:07;;;;;;;15.53;13.97;;;6.10;98.60;;;;;;5134193;27;20486;-68
2021/04/09 06:59:34;;;;;;;15.90;14.43;;;6.30;98.30;;;;;;5133827;27;20466;-68
2021/04/09 07:02:02;;;;;;;15.67;13.67;;;6.60;98.10;;;;;;5133828;27;20462;-68
2021/04/09 07:04:28;;;;;;;14.83;13.63;;;6.90;97.20;;;;;;5133944;27;20828;-67
2021/04/09 07:06:54;;;;;;;16.00;14.80;;;7.10;96.40;;;;;;5133899;27;20928;-67
2021/04/09 07:09:21;;;;;;;16.33;14.93;;;7.20;96.10;;;;;;5133850;27;20456;-68
2021/04/09 07:11:51;;;;;;;15.70;14.20;;;7.30;95.90;;;;;;5133537;27;20940;-67
2021/04/09 07:14:18;;;;;;;15.43;14.33;;;7.20;95.90;;;;;;5133393;27;20463;-67
2021/04/09 07:16:59;;;;;;;15.63;14.23;;;7.50;95.80;;;;;;5133274;27;20881;-68
2021/04/09 07:19:33;;;;;;;16.40;15.00;;;7.90;95.30;;;;;;5133419;27;20480;-68
2021/04/09 07:22:04;;;;;;;15.20;14.00;;;8.10;94.60;;;;;;5133167;27;20448;-68
2021/04/09 07:24:31;;;;;;;16.70;15.17;;;8.20;94.10;;;;;;5133176;27;20817;-68
2021/04/09 07:26:58;;;;;;;14.80;13.80;;;8.40;93.60;;;;;;5133375;27;20452;-68
2021/04/09 07:29:37;;;;;;;15.90;14.77;;;8.70;93.30;;;;;;5133203;27;20489;-68
2021/04/09 07:32:36;;;;;;;19.70;16.00;;;8.80;93.20;;;;;;5133331;27;20448;-68
2021/04/09 07:35:11;;;;;;;15.70;14.50;;;8.90;93.00;;;;;;5132712;27;20814;-69
2021/04/09 07:37:54;;;;;;;14.83;13.93;;;9.00;92.50;;;;;;5133124;27;20571;-69
2021/04/09 07:40:24;;;;;;;15.13;13.93;;;9.40;91.40;;;;;;5133103;27;20454;-68
2021/04/09 07:42:50;;;;;;;15.30;14.07;;;9.40;91.70;;;;;;5132896;27;20490;-70
2021/04/09 07:45:20;;;;;;;15.50;14.30;;;10.00;90.30;;;;;;5132963;27;20452;-70
2021/04/09 07:47:58;;;;;;;16.77;15.53;;;9.90;90.20;;;;;;5130956;27;20441;-70
2021/04/09 07:50:34;;;;;;;17.03;15.37;;;9.90;90.40;;;;;;5133359;27;20444;-71
2021/04/09 07:53:01;;;;;;;17.13;15.43;;;10.20;90.00;;;;;;5133039;27;20455;-71
2021/04/09 07:55:29;;;;;;;15.10;13.90;;;10.60;87.60;;;;;;5133098;27;20459;-70
2021/04/09 07:57:56;;;;;;;15.57;14.53;;;10.50;86.40;;;;;;5132778;27;20815;-71
2021/04/09 08:00:25;;;;;;;16.43;15.17;;;10.60;87.20;;;;;;5132907;27;20455;-70
2021/04/09 08:02:52;;;;;;;17.53;15.70;;;10.80;85.60;;;;;;5132605;27;20510;-71
2021/04/09 08:05:20;;;;;;;17.70;16.03;;;10.40;86.90;;;;;;5132476;27;20452;-71
2021/04/09 08:07:48;;;;;;;17.60;16.00;;;10.30;88.00;;;;;;5132753;27;20822;-71
2021/04/09 08:10:16;;;;;;;15.70;14.60;;;10.60;87.80;;;;;;5132674;27;20534;-71
2021/04/09 08:12:43;;;;;;;17.03;15.83;;;10.70;86.70;;;;;;5132656;27;20456;-71
2021/04/09 08:15:20;;;;;;;18.37;16.67;;;11.20;86.10;;;;;;5136818;27;20456;-71
2021/04/09 08:17:58;;;;;;;17.73;16.23;;;11.70;83.70;;;;;;5137795;27;20494;-70
2021/04/09 08:20:25;;;;;;;17.93;16.10;;;11.60;83.30;;;;;;5132574;27;20702;-70
2021/04/09 08:22:56;;;;;;;18.70;17.20;;;11.50;83.40;;;;;;5132472;27;20437;-70
2021/04/09 08:25:24;;;;;;;18.47;16.60;;;11.20;82.90;;;;;;5132405;27;20437;-70
2021/04/09 08:27:50;;;;;;;17.93;16.63;;;10.80;84.40;;;;;;5132046;27;20512;-70
2021/04/09 08:30:17;;;;;;;19.40;18.00;;;10.60;85.30;;;;;;5132442;27;20452;-70
2021/04/09 08:32:45;;;;;;;21.37;18.97;;;10.60;86.30;;;;;;5132594;27;20472;-70
2021/04/09 08:35:12;;;;;;;19.40;17.40;;;10.70;87.70;;;;;;5132517;27;20475;-71
2021/04/09 08:37:40;;;;;;;22.60;17.80;;;10.80;87.30;;;;;;5132423;27;21003;-71
2021/04/09 08:40:09;;;;;;;16.77;15.23;;;10.90;86.80;;;;;;5132410;27;20456;-71
2021/04/09 08:42:36;;;;;;;17.50;15.83;;;11.10;86.10;;;;;;5132365;27;20445;-70
2021/04/09 08:45:04;;;;;;;16.23;14.97;;;11.20;85.10;;;;;;5132340;27;20452;-71
2021/04/09 08:47:31;;;;;;;16.17;14.83;;;11.30;83.70;;;;;;5131697;27;20846;-70
2021/04/09 08:49:58;;;;;;;16.67;15.57;;;11.30;83.20;;;;;;5132391;27;20442;-71
2021/04/09 08:52:26;;;;;;;17.67;16.33;;;11.40;82.80;;;;;;5132375;27;20460;-70
2021/04/09 08:54:53;;;;;;;17.50;16.30;;;11.60;82.30;;;;;;5132061;27;20464;-72
2021/04/09 09:00:52;;;;;;;18.47;16.70;;;12.10;79.70;;;;;;5115968;27;20841;-72
2021/04/09 09:03:24;;;;;;;16.30;15.13;;;12.60;78.30;;;;;;5131506;27;20453;-69
2021/04/09 09:05:59;;;;;;;18.33;17.10;;;12.70;76.40;;;;;;5131937;27;20441;-71
2021/04/09 09:08:57;;;;;;;15.30;14.40;;;13.00;74.90;;;;;;5129807;27;20440;-71
2021/04/09 09:11:47;;;;;;;14.20;13.13;;;12.80;73.00;;;;;;5131807;27;20453;-70
2021/04/09 09:14:39;;;;;;;15.27;14.27;;;12.70;72.50;;;;;;5132027;27;20444;-70
2021/04/09 09:17:40;;;;;;;14.87;14.07;;;12.80;71.60;;;;;;5131633;27;20476;-70
2021/04/09 09:20:18;;;;;;;14.50;13.60;;;12.90;70.60;;;;;;5131480;27;20476;-70
2021/04/09 09:22:53;;;;;;;14.53;13.40;;;13.00;70.20;;;;;;5131552;27;20486;-70
2021/04/09 09:25:37;;;;;;;15.83;14.73;;;13.10;69.80;;;;;;5131520;27;20475;-70
2021/04/09 09:28:09;;;;;;;15.53;14.43;;;13.70;68.50;;;;;;5131265;27;20448;-71
2021/04/09 09:30:37;;;;;;;15.77;14.33;;;13.70;67.30;;;;;;5131465;27;20451;-70
2021/04/09 09:33:24;;;;;;;15.50;14.10;;;13.90;66.20;;;;;;5131501;27;20547;-70
2021/04/09 09:36:02;;;;;;;14.47;13.30;;;14.00;66.00;;;;;;5131639;27;20445;-70
2021/04/09 09:39:02;;;;;;;14.07;13.20;;;14.00;64.80;;;;;;5131558;27;21010;-70
2021/04/09 09:41:40;;;;;;;14.37;12.93;;;14.30;64.50;;;;;;5131748;27;20440;-70
2021/04/09 09:44:28;;;;;;;14.43;12.97;;;14.10;65.20;;;;;;5131413;27;20535;-70
2021/04/09 09:46:55;;;;;;;15.50;14.23;;;14.30;63.80;;;;;;5131652;27;20440;-70
2021/04/09 09:49:23;;;;;;;14.60;13.70;;;14.50;63.10;;;;;;5131582;27;20436;-69
2021/04/09 09:51:50;;;;;;;14.30;13.40;;;14.60;63.40;;;;;;5131199;27;20534;-70
2021/04/09 09:54:30;;;;;;;15.03;14.13;;;14.80;62.80;;;;;;5131408;27;20445;-69
2021/04/09 09:56:57;;;;;;;14.53;13.63;;;14.70;62.40;;;;;;5131629;27;21331;-70
2021/04/09 09:59:26;;;;;;;13.90;12.97;;;14.70;62.30;;;;;;5134786;27;20484;-69
2021/04/09 10:01:55;;;;;;;15.10;13.90;;;14.30;61.90;;;;;;5133205;27;20448;-70
2021/04/09 10:04:23;;;;;;;14.80;13.80;;;14.60;62.10;;;;;;5135299;27;20444;-70
2021/04/09 10:06:52;;;;;;;16.13;15.23;;;15.30;61.90;;;;;;5135367;27;20488;-70
2021/04/09 10:09:26;;;;;;;20.17;13.37;;;15.90;60.00;;;;;;5135371;27;20456;-69
2021/04/09 10:11:52;;;;;;;13.67;12.87;;;15.70;58.70;;;;;;5135119;27;20453;-69
2021/04/09 10:14:19;;;;;;;15.77;14.77;;;15.90;57.90;;;;;;5135179;27;20497;-69
2021/04/09 10:16:45;;;;;;;16.47;15.33;;;15.90;58.20;;;;;;5134812;27;20476;-69
2021/04/09 10:19:11;;;;;;;17.03;15.70;;;16.00;58.80;;;;;;5134881;27;20487;-70
2021/04/09 10:21:42;;;;;;;17.17;16.07;;;16.00;58.50;;;;;;5134936;27;20514;-69
2021/04/09 10:24:12;;;;;;;14.80;13.80;;;16.40;57.40;;;;;;5135214;27;20444;-69
2021/04/09 10:26:40;;;;;;;15.93;14.93;;;16.50;56.30;;;;;;5134966;27;20448;-70
2021/04/09 10:29:20;;;;;;;15.77;14.67;;;17.30;55.30;;;;;;5134801;27;20791;-70
2021/04/09 10:31:47;;;;;;;13.00;12.40;;;18.40;51.90;;;;;;5134759;27;20456;-70
2021/04/09 10:34:13;;;;;;;13.70;13.10;;;18.70;47.00;;;;;;5134973;27;20988;-70
2021/04/09 10:36:45;;;;;;;12.80;12.20;;;18.70;44.90;;;;;;5134822;27;20484;-70
2021/04/09 10:39:13;;;;;;;12.37;11.70;;;18.60;43.10;;;;;;5134848;27;20476;-70
2021/04/09 10:41:41;;;;;;;12.30;11.80;;;18.30;43.80;;;;;;5134824;27;20448;-69
2021/04/09 10:44:11;;;;;;;13.10;12.50;;;18.00;44.10;;;;;;5134829;27;20457;-69
2021/04/09 10:46:39;;;;;;;13.40;12.60;;;18.00;44.30;;;;;;5134741;27;20811;-69
2021/04/09 10:49:07;;;;;;;13.60;13.00;;;18.30;44.00;;;;;;5134597;27;20445;-69
2021/04/09 10:51:35;;;;;;;12.77;12.07;;;18.60;43.30;;;;;;5134567;27;20456;-68
2021/04/09 10:54:06;;;;;;;13.70;12.47;;;18.90;42.30;;;;;;5134521;27;20952;-69
2021/04/09 10:56:32;;;;;;;13.37;12.67;;;19.00;41.60;;;;;;5134541;27;20448;-69
2021/04/09 10:58:59;;;;;;;13.27;12.67;;;18.70;41.30;;;;;;5134274;27;20545;-69
2021/04/09 11:01:26;;;;;;;11.80;11.20;;;18.10;41.80;;;;;;5134156;27;20459;-69
2021/04/09 11:03:53;;;;;;;11.53;11.03;;;17.90;42.50;;;;;;5134170;27;20521;-69
2021/04/09 11:06:20;;;;;;;13.67;12.40;;;18.10;42.50;;;;;;5134186;27;20452;-69
2021/04/09 11:08:46;;;;;;;12.67;11.93;;;17.60;42.60;;;;;;5134027;27;20451;-69
2021/04/09 11:11:15;;;;;;;13.20;12.30;;;17.30;43.40;;;;;;5128518;27;20875;-69
2021/04/09 11:13:42;;;;;;;13.10;12.37;;;17.20;43.80;;;;;;5122738;27;20453;-70
2021/04/09 11:16:11;;;;;;;12.70;11.73;;;17.30;43.70;;;;;;5130323;27;20468;-69
2021/04/09 11:19:01;;;;;;;13.60;12.67;;;17.70;43.80;;;;;;5139261;27;20919;-69
2021/04/09 11:21:47;;;;;;;12.90;12.20;;;18.10;43.70;;;;;;5098125;28;20461;-68
2021/04/09 11:24:15;;;;;;;12.80;12.00;;;18.20;42.90;;;;;;5113826;28;20475;-68
2021/04/09 11:26:42;;;;;;;16.77;13.73;;;18.10;43.00;;;;;;5113481;28;20502;-67
2021/04/09 11:29:08;;;;;;;12.60;12.00;;;17.50;43.30;;;;;;5113218;28;20441;-68
2021/04/09 11:31:35;;;;;;;13.13;12.43;;;17.70;43.60;;;;;;5113337;28;20441;-69
2021/04/09 11:34:07;;;;;;;12.80;12.00;;;17.50;42.80;;;;;;5113073;28;20445;-69
2021/04/09 11:36:42;;;;;;;12.40;11.80;;;17.60;43.50;;;;;;5113173;28;20481;-69
2021/04/09 11:39:11;;;;;;;12.50;11.90;;;17.90;42.90;;;;;;5113218;28;20480;-70
2021/04/09 11:41:39;;;;;;;11.43;10.83;;;17.90;42.10;;;;;;5113314;28;20510;-69
2021/04/09 11:44:26;;;;;;;13.00;12.20;;;17.90;42.80;;;;;;5113163;28;20463;-70
2021/04/09 11:46:52;;;;;;;12.80;12.13;;;18.50;41.80;;;;;;5110914;28;20441;-68
2021/04/09 11:49:28;;;;;;;12.27;11.67;;;18.40;41.20;;;;;;5113060;28;20490;-68
2021/04/09 11:51:59;;;;;;;13.00;12.20;;;18.50;41.80;;;;;;5113078;28;20536;-67
2021/04/09 11:54:31;;;;;;;13.00;12.30;;;18.50;41.50;;;;;;5112836;28;20450;-67
2021/04/09 11:56:59;;;;;;;13.20;12.50;;;18.70;41.20;;;;;;5113020;28;20449;-67
2021/04/09 11:59:26;;;;;;;13.40;12.70;;;18.60;40.70;;;;;;5112856;28;20488;-67
2021/04/09 12:01:53;;;;;;;12.97;12.23;;;18.60;41.00;;;;;;5112830;28;20452;-67
2021/04/09 12:04:32;;;;;;;13.10;12.50;;;18.80;41.10;;;;;;5118533;27;20445;-67
2021/04/09 12:06:59;;;;;;;13.50;12.80;;;18.80;40.90;;;;;;5133404;27;20456;-67
2021/04/09 12:09:25;;;;;;;14.50;13.63;;;18.70;40.70;;;;;;5133236;27;20449;-67
2021/04/09 12:11:51;;;;;;;12.93;12.17;;;18.40;40.30;;;;;;5133126;27;20455;-68
2021/04/09 12:14:35;;;;;;;12.30;11.50;;;18.40;41.00;;;;;;5132937;27;20819;-68
2021/04/09 12:17:02;;;;;;;12.23;11.43;;;18.80;40.40;;;;;;5132599;27;20456;-68
2021/04/09 12:19:28;;;;;;;12.77;12.07;;;19.70;40.20;;;;;;5126484;27;20488;-68
2021/04/09 12:21:54;;;;;;;12.10;11.57;;;20.40;38.90;;;;;;5111639;28;20456;-68
2021/04/09 12:24:21;;;;;;;12.87;12.17;;;20.70;38.60;;;;;;5112048;28;20445;-68
2021/04/09 12:26:47;;;;;;;13.47;12.77;;;21.10;37.70;;;;;;5112116;28;20450;-67
2021/04/09 12:29:13;;;;;;;12.60;11.80;;;21.30;36.80;;;;;;5112126;28;20449;-67
2021/04/09 12:31:40;;;;;;;13.40;12.70;;;21.00;35.40;;;;;;5112163;28;20450;-68
2021/04/09 12:34:06;;;;;;;11.70;11.10;;;21.00;37.30;;;;;;5112034;28;20564;-68
2021/04/09 12:36:35;;;;;;;12.37;11.83;;;21.00;37.50;;;;;;5112010;28;20449;-68
2021/04/09 12:39:02;;;;;;;13.67;12.73;;;20.70;36.20;;;;;;5112003;28;20493;-68
2021/04/09 12:41:28;;;;;;;11.67;11.17;;;20.80;36.40;;;;;;5112156;28;20481;-68
2021/04/09 12:43:54;;;;;;;12.90;12.23;;;21.20;35.50;;;;;;5112158;28;20510;-68
2021/04/09 12:46:20;;;;;;;13.23;12.63;;;21.70;34.40;;;;;;5112171;28;20464;-67